Time;durP1;ratioP1;P1;durP2;ratioP2;P2;SDS_P1;SDS_P2;PMS_P1;PMS_P2;Temp;Humidity;BMP_temperature;BMP_pressure;BME280_temperature;BME280_humidity;BME280_pressure;Samples;Min_cycle;Max_cycle;Signal;HPM_P1;HPM_P2
2023/06/26 00:02:14;;;;;;;;;;;18.80;67.40;;;;;;5013328;28;19932;-81
2023/06/26 00:04:39;;;;;;;;;;;18.70;67.70;;;;;;5013444;28;20323;-81
2023/06/26 00:07:05;;;;;;;;;;;18.70;68.10;;;;;;5014910;28;20117;-81
2023/06/26 00:09:32;;;;;;;;;;;18.70;68.30;;;;;;5014349;28;19915;-80
2023/06/26 00:11:59;;;;;;;;;;;18.70;68.20;;;;;;5014648;28;19924;-80
2023/06/26 00:14:25;;;;;;;;;;;18.70;68.30;;;;;;4999930;28;19940;-80
2023/06/26 00:16:51;;;;;;;;;;;18.70;68.50;;;;;;5020099;28;19982;-81
2023/06/26 00:19:17;;;;;;;;;;;18.70;68.70;;;;;;5014791;28;20322;-82
2023/06/26 00:21:47;;;;;;;;;;;18.80;69.10;;;;;;4996473;28;20290;-80
2023/06/26 00:24:13;;;;;;;;;;;18.80;69.10;;;;;;5018061;28;19912;-80
2023/06/26 00:26:39;;;;;;;;;;;18.90;69.30;;;;;;5027186;28;20013;-81
2023/06/26 00:29:05;;;;;;;;;;;18.80;69.00;;;;;;5014595;28;20390;-80
2023/06/26 00:31:30;;;;;;;;;;;18.90;69.20;;;;;;5009629;28;19922;-80
2023/06/26 00:33:56;;;;;;;;;;;18.80;69.40;;;;;;5016536;28;19977;-81
2023/06/26 00:36:26;;;;;;;;;;;18.80;69.80;;;;;;5021054;28;20374;-82
2023/06/26 00:38:52;;;;;;;;;;;18.80;70.00;;;;;;5010467;28;19913;-81
2023/06/26 00:41:17;;;;;;;;;;;18.80;70.40;;;;;;5014482;28;20379;-82
2023/06/26 00:43:43;;;;;;;;;;;18.80;70.20;;;;;;5015495;28;19905;-81
2023/06/26 00:46:10;;;;;;;;;;;18.90;70.00;;;;;;5014210;28;19913;-81
2023/06/26 00:48:36;;;;;;;;;;;18.80;69.80;;;;;;5013786;28;19916;-81
2023/06/26 00:51:02;;;;;;;;;;;18.80;69.70;;;;;;4996055;28;20374;-81
2023/06/26 00:53:28;;;;;;;;;;;18.80;69.80;;;;;;5013252;28;19996;-80
2023/06/26 00:55:54;;;;;;;;;;;18.80;69.50;;;;;;4995008;28;20295;-81
2023/06/26 00:58:22;;;;;;;;;;;18.70;69.70;;;;;;5005235;28;19917;-80
2023/06/26 01:00:49;;;;;;;;;;;18.70;69.60;;;;;;4992604;28;19912;-81
2023/06/26 01:03:15;;;;;;;;;;;18.70;69.60;;;;;;4995579;28;19917;-80
2023/06/26 01:05:40;;;;;;;;;;;18.70;69.70;;;;;;4994084;28;20378;-81
2023/06/26 01:08:07;;;;;;;;;;;18.60;69.80;;;;;;5015064;28;19909;-81
2023/06/26 01:10:33;;;;;;;;;;;18.60;70.00;;;;;;5013968;28;19912;-81
2023/06/26 01:12:58;;;;;;;;;;;18.60;70.10;;;;;;5010054;28;19905;-80
2023/06/26 01:15:24;;;;;;;;;;;18.60;70.30;;;;;;5012976;28;19905;-80
2023/06/26 01:17:50;;;;;;;;;;;18.50;70.20;;;;;;5013239;28;19906;-80
2023/06/26 01:20:17;;;;;;;;;;;18.50;70.30;;;;;;5012830;28;19909;-80
2023/06/26 01:22:50;;;;;;;;;;;18.50;70.40;;;;;;5013108;28;19909;-81
2023/06/26 01:25:21;;;;;;;;;;;18.50;70.70;;;;;;4995295;28;20252;-82
2023/06/26 01:27:48;;;;;;;;;;;18.40;70.60;;;;;;5012779;28;20310;-80
2023/06/26 01:30:15;;;;;;;;;;;18.40;70.80;;;;;;4995836;28;20455;-81
2023/06/26 01:32:41;;;;;;;;;;;18.40;70.60;;;;;;5007741;28;19928;-81
2023/06/26 01:35:07;;;;;;;;;;;18.50;70.80;;;;;;5012954;28;19953;-82
2023/06/26 01:37:33;;;;;;;;;;;18.40;71.00;;;;;;4995306;28;19955;-81
2023/06/26 01:39:59;;;;;;;;;;;18.40;70.90;;;;;;4995703;28;19940;-80
2023/06/26 01:42:24;;;;;;;;;;;18.40;71.00;;;;;;5014244;28;20381;-82
2023/06/26 01:44:52;;;;;;;;;;;18.30;71.00;;;;;;5013880;28;19905;-82
2023/06/26 01:47:21;;;;;;;;;;;18.30;71.00;;;;;;4996645;28;20359;-82
2023/06/26 01:49:49;;;;;;;;;;;18.30;71.10;;;;;;5013914;28;19905;-81
2023/06/26 01:52:40;;;;;;;;;;;18.30;71.30;;;;;;5014698;28;19906;-81
2023/06/26 01:55:12;;;;;;;;;;;18.20;71.50;;;;;;5018350;28;19925;-81
2023/06/26 01:57:39;;;;;;;;;;;18.20;71.80;;;;;;5015722;28;19922;-79
2023/06/26 02:00:06;;;;;;;;;;;18.20;71.90;;;;;;5016660;28;20023;-81
2023/06/26 02:02:31;;;;;;;;;;;18.20;71.80;;;;;;5018691;28;20346;-79
2023/06/26 02:04:57;;;;;;;;;;;18.20;72.20;;;;;;5017276;28;19927;-79
2023/06/26 02:07:23;;;;;;;;;;;18.30;72.60;;;;;;5013093;28;19916;-80
2023/06/26 02:09:48;;;;;;;;;;;18.30;72.80;;;;;;5012797;28;20299;-81
2023/06/26 02:12:14;;;;;;;;;;;18.30;73.00;;;;;;5013127;28;19987;-80
2023/06/26 02:14:40;;;;;;;;;;;18.30;73.30;;;;;;5014285;28;19968;-81
2023/06/26 02:17:06;;;;;;;;;;;18.30;73.60;;;;;;5015508;28;19910;-80
2023/06/26 02:19:32;;;;;;;;;;;18.30;73.90;;;;;;5015051;28;20000;-80
2023/06/26 02:21:57;;;;;;;;;;;18.30;74.30;;;;;;5013680;28;20358;-81
2023/06/26 02:24:23;;;;;;;;;;;18.30;74.00;;;;;;5013693;28;19952;-79
2023/06/26 02:26:49;;;;;;;;;;;18.30;74.10;;;;;;5013542;28;19913;-80
2023/06/26 02:29:15;;;;;;;;;;;18.30;74.40;;;;;;5018100;28;19913;-81
2023/06/26 02:31:40;;;;;;;;;;;18.40;74.50;;;;;;5000590;28;19909;-81
2023/06/26 02:34:06;;;;;;;;;;;18.40;74.50;;;;;;5016346;28;20393;-80
2023/06/26 02:36:32;;;;;;;;;;;18.40;74.30;;;;;;5015832;28;19909;-82
2023/06/26 02:38:57;;;;;;;;;;;18.40;74.10;;;;;;5015898;28;19905;-81
2023/06/26 02:41:23;;;;;;;;;;;18.50;74.50;;;;;;5015713;28;19905;-81
2023/06/26 02:43:49;;;;;;;;;;;18.50;74.40;;;;;;5015413;28;19905;-80
2023/06/26 02:46:14;;;;;;;;;;;18.60;74.50;;;;;;5015571;28;19913;-82
2023/06/26 02:48:40;;;;;;;;;;;18.50;74.10;;;;;;5016402;28;20051;-82
2023/06/26 02:51:07;;;;;;;;;;;18.60;73.80;;;;;;4997908;28;19910;-80
2023/06/26 02:53:32;;;;;;;;;;;18.60;73.40;;;;;;5015602;28;19906;-79
2023/06/26 02:55:58;;;;;;;;;;;18.60;73.10;;;;;;5015722;28;19905;-82
2023/06/26 02:58:24;;;;;;;;;;;18.70;73.30;;;;;;5015419;28;19905;-80
2023/06/26 03:00:49;;;;;;;;;;;18.60;73.50;;;;;;4997687;28;19956;-81
2023/06/26 03:03:15;;;;;;;;;;;18.70;73.20;;;;;;5015482;28;19905;-80
2023/06/26 03:05:41;;;;;;;;;;;18.70;73.00;;;;;;4997121;28;20302;-81
2023/06/26 03:08:06;;;;;;;;;;;18.80;72.90;;;;;;4997188;28;19964;-81
2023/06/26 03:10:32;;;;;;;;;;;18.80;72.70;;;;;;5015243;28;20358;-80
2023/06/26 03:12:58;;;;;;;;;;;18.90;72.70;;;;;;5015460;28;19928;-80
2023/06/26 03:15:23;;;;;;;;;;;18.90;72.60;;;;;;5014803;28;19912;-80
2023/06/26 03:17:49;;;;;;;;;;;18.90;72.60;;;;;;5015216;28;19905;-80
2023/06/26 03:20:15;;;;;;;;;;;18.90;72.30;;;;;;5015056;28;19913;-80
2023/06/26 03:22:41;;;;;;;;;;;18.90;72.30;;;;;;5015055;28;19905;-80
2023/06/26 03:25:06;;;;;;;;;;;18.90;72.30;;;;;;5014730;28;19919;-80
2023/06/26 03:27:32;;;;;;;;;;;18.90;72.60;;;;;;5014565;28;19909;-80
2023/06/26 03:29:58;;;;;;;;;;;18.90;72.80;;;;;;5015110;28;20330;-80
2023/06/26 03:32:23;;;;;;;;;;;18.90;72.90;;;;;;5015215;28;20004;-81
2023/06/26 03:34:49;;;;;;;;;;;19.00;72.80;;;;;;5015244;28;19912;-80
2023/06/26 03:37:15;;;;;;;;;;;18.90;72.90;;;;;;5015100;28;19906;-80
2023/06/26 03:39:40;;;;;;;;;;;19.00;72.80;;;;;;5013604;28;19917;-79
2023/06/26 03:42:06;;;;;;;;;;;19.00;72.80;;;;;;5014664;28;19916;-80
2023/06/26 03:44:32;;;;;;;;;;;19.10;72.90;;;;;;5015035;28;19909;-80
2023/06/26 03:46:58;;;;;;;;;;;19.20;73.10;;;;;;5014852;28;19984;-81
2023/06/26 03:49:23;;;;;;;;;;;19.20;73.10;;;;;;5018181;28;19905;-80
2023/06/26 03:51:49;;;;;;;;;;;19.30;72.90;;;;;;5016161;28;19906;-80
2023/06/26 03:54:15;;;;;;;;;;;19.40;72.40;;;;;;5016811;28;19952;-79
2023/06/26 03:56:40;;;;;;;;;;;19.50;71.90;;;;;;4997900;28;20394;-80
2023/06/26 03:59:06;;;;;;;;;;;19.60;71.40;;;;;;4996061;28;19913;-79
2023/06/26 04:01:32;;;;;;;;;;;19.80;71.10;;;;;;5014341;28;19909;-80
2023/06/26 04:03:57;;;;;;;;;;;19.90;70.60;;;;;;5014344;28;19906;-79
2023/06/26 04:06:23;;;;;;;;;;;20.10;71.10;;;;;;5014316;28;19914;-80
2023/06/26 04:08:49;;;;;;;;;;;20.40;70.00;;;;;;5014735;28;19950;-81
2023/06/26 04:11:14;;;;;;;;;;;20.70;69.60;;;;;;5014878;28;20267;-81
2023/06/26 04:13:40;;;;;;;;;;;21.00;69.00;;;;;;4999195;28;20307;-80
2023/06/26 04:16:06;;;;;;;;;;;21.20;68.20;;;;;;5021626;28;20000;-81
2023/06/26 04:18:32;;;;;;;;;;;21.40;67.70;;;;;;5024502;28;19940;-80
2023/06/26 04:21:08;;;;;;;;;;;21.60;66.50;;;;;;5023202;28;20351;-81
2023/06/26 04:23:34;;;;;;;;;;;21.60;64.30;;;;;;5017040;28;19914;-81
2023/06/26 04:26:00;;;;;;;;;;;21.50;64.20;;;;;;5019903;28;20286;-79
2023/06/26 04:28:26;;;;;;;;;;;21.50;64.50;;;;;;5016373;28;19975;-81
2023/06/26 04:30:51;;;;;;;;;;;21.60;64.20;;;;;;5015133;28;19917;-80
2023/06/26 04:33:17;;;;;;;;;;;21.60;64.00;;;;;;5018584;28;19905;-81
2023/06/26 04:35:48;;;;;;;;;;;21.80;64.00;;;;;;5025077;28;19906;-80
2023/06/26 04:38:15;;;;;;;;;;;21.90;63.40;;;;;;4997688;28;20379;-81
2023/06/26 04:40:40;;;;;;;;;;;21.90;63.10;;;;;;4997794;28;19924;-80
2023/06/26 04:43:06;;;;;;;;;;;22.00;63.10;;;;;;5016348;28;20286;-80
2023/06/26 04:45:32;;;;;;;;;;;22.10;63.10;;;;;;5014757;28;19920;-81
2023/06/26 04:47:59;;;;;;;;;;;22.20;62.90;;;;;;5014296;28;19944;-81
2023/06/26 04:50:25;;;;;;;;;;;22.30;61.30;;;;;;5020144;28;19905;-81
2023/06/26 04:52:50;;;;;;;;;;;22.40;61.10;;;;;;5009808;28;20291;-79
2023/06/26 04:55:16;;;;;;;;;;;22.40;60.90;;;;;;5015049;28;19909;-80
2023/06/26 04:57:42;;;;;;;;;;;22.50;61.00;;;;;;5015850;28;20303;-78
2023/06/26 05:00:10;;;;;;;;;;;22.60;61.00;;;;;;5015324;28;19905;-82
2023/06/26 05:02:36;;;;;;;;;;;22.60;60.90;;;;;;5016694;28;19984;-79
2023/06/26 05:05:02;;;;;;;;;;;22.70;60.80;;;;;;5016002;28;19913;-80
2023/06/26 05:07:27;;;;;;;;;;;22.70;59.10;;;;;;5013411;28;19909;-79
2023/06/26 05:09:53;;;;;;;;;;;22.70;59.50;;;;;;5013294;28;19996;-79
2023/06/26 05:12:19;;;;;;;;;;;22.70;59.60;;;;;;5014185;28;19937;-80
2023/06/26 05:14:45;;;;;;;;;;;22.90;60.00;;;;;;5006653;28;19955;-81
2023/06/26 05:17:11;;;;;;;;;;;23.40;59.80;;;;;;4995413;28;19916;-80
2023/06/26 05:19:36;;;;;;;;;;;24.10;59.20;;;;;;4995020;28;20004;-83
2023/06/26 05:22:07;;;;;;;;;;;25.10;57.40;;;;;;5013596;28;19913;-81
2023/06/26 05:24:36;;;;;;;;;;;26.00;54.00;;;;;;4996503;28;19916;-82
2023/06/26 05:27:02;;;;;;;;;;;26.90;53.70;;;;;;5013883;28;19994;-83
2023/06/26 05:29:28;;;;;;;;;;;27.70;51.50;;;;;;5013489;28;20260;-81
2023/06/26 05:31:55;;;;;;;;;;;28.50;50.50;;;;;;5013309;28;19911;-80
2023/06/26 05:34:21;;;;;;;;;;;;;;;;;;4994365;28;19909;-87
2023/06/26 05:36:48;;;;;;;;;;;29.40;49.80;;;;;;5017743;28;19917;-81
2023/06/26 05:39:14;;;;;;;;;;;31.30;46.90;;;;;;5012948;28;20393;-80
2023/06/26 05:41:40;;;;;;;;;;;31.70;45.10;;;;;;5011802;28;19910;-80
2023/06/26 05:44:06;;;;;;;;;;;32.20;45.90;;;;;;5013145;28;19909;-79
2023/06/26 05:46:31;;;;;;;;;;;32.60;44.50;;;;;;5012758;28;19922;-78
2023/06/26 05:48:57;;;;;;;;;;;33.00;44.80;;;;;;5013398;28;19910;-82
2023/06/26 05:51:23;;;;;;;;;;;33.20;42.00;;;;;;4997252;28;20386;-81
2023/06/26 05:53:49;;;;;;;;;;;33.10;41.90;;;;;;4995617;28;19913;-81
2023/06/26 05:56:15;;;;;;;;;;;32.80;40.70;;;;;;4995476;28;20343;-81
2023/06/26 05:58:42;;;;;;;;;;;32.40;39.70;;;;;;5013024;28;19951;-81
2023/06/26 06:01:08;;;;;;;;;;;31.90;40.20;;;;;;4996108;28;20354;-83
2023/06/26 06:03:34;;;;;;;;;;;31.90;40.70;;;;;;4999320;28;19957;-83
2023/06/26 06:05:59;;;;;;;;;;;32.70;41.00;;;;;;5016857;28;19976;-84
2023/06/26 06:08:25;;;;;;;;;;;33.70;40.40;;;;;;5017314;28;20294;-84
2023/06/26 06:10:50;;;;;;;;;;;34.80;40.40;;;;;;5017026;28;19906;-83
2023/06/26 06:13:16;;;;;;;;;;;35.50;38.00;;;;;;5016633;28;20224;-83
2023/06/26 06:15:42;;;;;;;;;;;35.40;36.80;;;;;;5016213;28;19913;-83
2023/06/26 06:18:07;;;;;;;;;;;35.80;37.80;;;;;;5016373;28;19952;-82
2023/06/26 06:20:33;;;;;;;;;;;36.80;37.30;;;;;;5017391;28;19909;-83
2023/06/26 06:22:59;;;;;;;;;;;37.60;36.30;;;;;;5017517;28;19952;-83
2023/06/26 06:25:24;;;;;;;;;;;37.90;35.10;;;;;;5017057;28;19913;-83
2023/06/26 06:27:50;;;;;;;;;;;38.50;35.60;;;;;;5007034;28;19905;-83
2023/06/26 06:30:16;;;;;;;;;;;39.80;33.80;;;;;;5000456;28;19913;-83
2023/06/26 06:32:41;;;;;;;;;;;39.90;33.90;;;;;;5000728;28;19917;-82
2023/06/26 06:35:11;;;;;;;;;;;;;;;;;;5017283;28;19999;-83
2023/06/26 06:37:37;;;;;;;;;;;;;;;;;;5015949;28;19909;-84
2023/06/26 06:40:03;;;;;;;;;;;;;;;;;;5014585;28;19905;-82
2023/06/26 06:42:29;;;;;;;;;;;40.30;34.40;;;;;;5017009;28;19906;-85
2023/06/26 06:44:55;;;;;;;;;;;41.80;33.40;;;;;;5019074;28;19912;-83
2023/06/26 06:47:21;;;;;;;;;;;42.30;32.40;;;;;;5025714;28;19932;-84
2023/06/26 06:49:47;;;;;;;;;;;42.70;32.10;;;;;;5015407;28;19992;-82
2023/06/26 06:52:12;;;;;;;;;;;43.30;31.60;;;;;;5038625;28;19905;-83
2023/06/26 06:54:51;;;;;;;;;;;42.70;29.40;;;;;;5021795;28;19905;-82
2023/06/26 06:57:16;;;;;;;;;;;41.40;29.20;;;;;;5019333;28;19928;-83
2023/06/26 06:59:42;;;;;;;;;;;40.30;29.50;;;;;;4999102;28;20326;-85
2023/06/26 07:02:08;;;;;;;;;;;39.50;30.50;;;;;;5015519;28;19905;-83
2023/06/26 07:04:33;;;;;;;;;;;40.10;30.70;;;;;;5015833;28;19928;-83
2023/06/26 07:06:59;;;;;;;;;;;40.20;30.10;;;;;;4997220;28;19917;-84
2023/06/26 07:09:24;;;;;;;;;;;40.10;29.90;;;;;;5016520;28;19912;-82
2023/06/26 07:11:50;;;;;;;;;;;39.90;30.00;;;;;;5008671;28;19949;-83
2023/06/26 07:14:16;;;;;;;;;;;41.10;30.00;;;;;;5001160;28;19916;-83
2023/06/26 07:16:41;;;;;;;;;;;42.20;29.50;;;;;;5019494;28;19913;-81
2023/06/26 07:19:07;;;;;;;;;;;42.30;29.00;;;;;;5001539;28;19912;-84
2023/06/26 07:21:33;;;;;;;;;;;42.80;29.30;;;;;;5021638;28;19912;-81
2023/06/26 07:23:58;;;;;;;;;;;43.00;28.90;;;;;;5018294;28;19949;-84
2023/06/26 07:26:24;;;;;;;;;;;42.60;28.40;;;;;;5016411;28;19914;-84
2023/06/26 07:28:49;;;;;;;;;;;42.80;28.70;;;;;;5015763;28;19960;-84
2023/06/26 07:31:16;;;;;;;;;;;43.20;28.90;;;;;;5015498;28;19912;-83
2023/06/26 07:33:42;;;;;;;;;;;43.40;28.50;;;;;;5015905;28;20003;-82
2023/06/26 07:36:07;;;;;;;;;;;43.20;28.60;;;;;;4997633;28;19949;-83
2023/06/26 07:38:33;;;;;;;;;;;43.70;28.40;;;;;;5015924;28;19906;-83
2023/06/26 07:40:59;;;;;;;;;;;;;;;;;;5016092;28;19985;-83
2023/06/26 07:43:25;;;;;;;;;;;;;;;;;;5017545;28;19913;-83
2023/06/26 07:45:53;;;;;;;;;;;43.60;28.10;;;;;;5005707;28;19913;-83
2023/06/26 07:48:18;;;;;;;;;;;42.20;28.50;;;;;;5013236;28;19909;-83
2023/06/26 07:50:44;;;;;;;;;;;42.60;28.80;;;;;;5020366;28;19961;-83
2023/06/26 07:53:10;;;;;;;;;;;42.90;28.80;;;;;;5015697;28;19944;-82
2023/06/26 07:55:35;;;;;;;;;;;43.30;28.10;;;;;;5014897;28;20363;-84
2023/06/26 07:58:01;;;;;;;;;;;43.10;27.80;;;;;;5014776;28;20298;-82
2023/06/26 08:00:27;;;;;;;;;;;42.40;28.00;;;;;;5015229;28;19909;-85
2023/06/26 08:02:52;;;;;;;;;;;42.50;28.60;;;;;;4997788;28;19905;-83
2023/06/26 08:05:18;;;;;;;;;;;43.10;28.30;;;;;;5015118;28;20024;-84
2023/06/26 08:07:44;;;;;;;;;;;;;;;;;;5014608;28;19906;-84
2023/06/26 08:10:10;;;;;;;;;;;;;;;;;;5015148;28;20275;-83
2023/06/26 08:12:40;;;;;;;;;;;;;;;;;;5014117;28;19913;-82
2023/06/26 08:15:06;;;;;;;;;;;;;;;;;;5017137;28;19928;-83
2023/06/26 08:17:31;;;;;;;;;;;43.60;28.30;;;;;;5002929;28;19995;-85
2023/06/26 08:19:57;;;;;;;;;;;40.00;29.00;;;;;;4999467;28;20354;-84
2023/06/26 08:22:23;;;;;;;;;;;38.20;29.10;;;;;;5015244;28;19912;-83
2023/06/26 08:24:49;;;;;;;;;;;37.10;29.80;;;;;;5013615;28;20012;-84
2023/06/26 08:27:14;;;;;;;;;;;37.50;30.70;;;;;;5004851;28;20004;-83
2023/06/26 08:29:40;;;;;;;;;;;38.30;30.10;;;;;;5013941;28;19963;-85
2023/06/26 08:32:06;;;;;;;;;;;36.10;29.70;;;;;;5015009;28;19975;-82
2023/06/26 08:34:31;;;;;;;;;;;35.10;30.70;;;;;;5015067;28;19913;-82
2023/06/26 08:36:57;;;;;;;;;;;34.50;31.60;;;;;;5014303;28;19905;-83
2023/06/26 08:39:23;;;;;;;;;;;34.10;32.10;;;;;;5014897;28;19958;-84
2023/06/26 08:41:48;;;;;;;;;;;33.20;33.10;;;;;;5004424;28;20288;-84
2023/06/26 08:44:14;;;;;;;;;;;;;;;;;;5019273;28;19905;-84
2023/06/26 08:46:40;;;;;;;;;;;32.40;33.80;;;;;;5016586;28;19913;-82
2023/06/26 08:49:20;;;;;;;;;;;32.60;34.80;;;;;;5014262;28;19960;-83
2023/06/26 08:51:51;;;;;;;;;;;34.20;34.60;;;;;;5004034;28;19912;-85
2023/06/26 08:54:20;;;;;;;;;;;39.20;31.60;;;;;;5017264;28;19910;-84
2023/06/26 08:56:48;;;;;;;;;;;39.60;31.80;;;;;;5011504;28;19917;-83
2023/06/26 08:59:14;;;;;;;;;;;39.50;29.40;;;;;;5021133;28;20004;-84
2023/06/26 09:01:40;;;;;;;;;;;36.70;29.70;;;;;;5019893;28;19948;-83
2023/06/26 09:04:06;;;;;;;;;;;35.20;31.00;;;;;;5033911;28;19939;-82
2023/06/26 09:06:33;;;;;;;;;;;34.10;31.60;;;;;;5033023;28;19928;-83
2023/06/26 09:08:58;;;;;;;;;;;32.60;32.20;;;;;;5020934;28;19909;-83
2023/06/26 09:11:24;;;;;;;;;;;31.60;33.20;;;;;;5023922;28;19905;-83
2023/06/26 09:13:50;;;;;;;;;;;30.90;34.10;;;;;;5026810;28;19905;-82
2023/06/26 09:16:15;;;;;;;;;;;30.30;34.90;;;;;;5009487;28;19905;-83
2023/06/26 09:18:42;;;;;;;;;;;29.70;35.80;;;;;;5005225;28;19921;-83
2023/06/26 09:21:08;;;;;;;;;;;29.30;36.30;;;;;;5002663;28;20310;-83
2023/06/26 09:23:35;;;;;;;;;;;29.00;36.50;;;;;;5016391;28;19905;-84
2023/06/26 09:26:04;;;;;;;;;;;28.80;37.30;;;;;;5015966;28;20368;-83
2023/06/26 09:28:31;;;;;;;;;;;28.60;37.80;;;;;;4997400;28;19933;-84
2023/06/26 09:31:00;;;;;;;;;;;28.40;38.60;;;;;;5013501;28;20406;-85
2023/06/26 09:33:26;;;;;;;;;;;28.30;38.90;;;;;;5014846;28;19967;-84
2023/06/26 09:35:51;;;;;;;;;;;28.30;38.70;;;;;;5014164;28;19909;-85
2023/06/26 09:38:18;;;;;;;;;;;28.30;38.60;;;;;;5016221;28;19913;-83
2023/06/26 09:40:44;;;;;;;;;;;28.30;38.60;;;;;;5015494;28;20236;-84
2023/06/26 09:43:13;;;;;;;;;;;28.40;38.90;;;;;;5014847;28;19906;-83
2023/06/26 09:45:39;;;;;;;;;;;28.90;39.30;;;;;;5013701;28;19959;-84
2023/06/26 09:48:05;;;;;;;;;;;29.70;38.60;;;;;;5013889;28;19905;-83
2023/06/26 09:50:33;;;;;;;;;;;29.80;37.70;;;;;;5013450;28;20096;-85
2023/06/26 09:53:13;;;;;;;;;;;29.40;37.30;;;;;;5006301;28;20271;-84
2023/06/26 09:55:40;;;;;;;;;;;28.90;37.60;;;;;;5012866;28;20063;-84
2023/06/26 09:58:06;;;;;;;;;;;28.40;38.00;;;;;;5014461;28;19921;-82
2023/06/26 10:00:32;;;;;;;;;;;27.60;38.90;;;;;;5013403;28;19913;-83
2023/06/26 10:02:58;;;;;;;;;;;26.80;40.20;;;;;;5013555;28;20402;-83
2023/06/26 10:05:24;;;;;;;;;;;26.20;40.90;;;;;;5015366;28;19956;-82
2023/06/26 10:07:50;;;;;;;;;;;26.20;40.80;;;;;;5016771;28;19909;-82
2023/06/26 10:10:16;;;;;;;;;;;26.30;40.60;;;;;;5014445;28;19952;-84
2023/06/26 10:12:43;;;;;;;;;;;26.10;41.60;;;;;;5013762;28;19914;-83
2023/06/26 10:15:12;;;;;;;;;;;26.30;42.10;;;;;;4996520;28;20341;-85
2023/06/26 10:17:38;;;;;;;;;;;26.50;42.30;;;;;;5013877;28;19929;-83
2023/06/26 10:20:06;;;;;;;;;;;26.60;42.60;;;;;;5016706;28;20008;-84
2023/06/26 10:22:35;;;;;;;;;;;26.70;42.40;;;;;;5015643;28;20358;-82
2023/06/26 10:25:02;;;;;;;;;;;26.80;41.60;;;;;;5016339;28;19968;-84
2023/06/26 10:27:32;;;;;;;;;;;26.90;41.80;;;;;;5015208;28;19925;-84
2023/06/26 10:30:01;;;;;;;;;;;27.00;41.90;;;;;;5002255;28;19913;-83
2023/06/26 10:32:28;;;;;;;;;;;27.10;42.10;;;;;;5019973;28;19909;-83
2023/06/26 10:34:55;;;;;;;;;;;27.20;42.20;;;;;;5007607;28;19905;-84
2023/06/26 10:37:20;;;;;;;;;;;27.40;42.10;;;;;;5026068;28;19944;-84
2023/06/26 10:39:49;;;;;;;;;;;27.60;41.70;;;;;;5018490;28;19933;-84
2023/06/26 10:42:15;;;;;;;;;;;27.60;42.00;;;;;;5001564;28;20454;-84
2023/06/26 10:44:44;;;;;;;;;;;27.50;41.60;;;;;;5018749;28;20275;-83
2023/06/26 10:47:11;;;;;;;;;;;27.10;41.80;;;;;;5019924;28;19920;-83
2023/06/26 10:49:37;;;;;;;;;;;27.00;42.40;;;;;;5012032;28;19949;-83
2023/06/26 10:52:03;;;;;;;;;;;27.10;42.50;;;;;;5002032;28;19905;-84
2023/06/26 10:54:30;;;;;;;;;;;27.20;42.50;;;;;;5005266;28;19905;-82
2023/06/26 10:57:00;;;;;;;;;;;27.00;42.60;;;;;;5021926;28;19965;-84
2023/06/26 10:59:26;;;;;;;;;;;27.20;42.70;;;;;;5004265;28;20012;-83
2023/06/26 11:01:55;;;;;;;;;;;27.40;42.70;;;;;;5017604;28;20001;-84
2023/06/26 11:04:40;;;;;;;;;;;27.50;42.40;;;;;;5017493;28;19967;-85
2023/06/26 11:07:26;;;;;;;;;;;27.60;42.40;;;;;;5016148;28;20378;-85
2023/06/26 11:09:59;;;;;;;;;;;27.40;42.10;;;;;;5005122;28;19937;-84
2023/06/26 11:12:39;;;;;;;;;;;27.30;42.10;;;;;;5017603;28;19928;-84
2023/06/26 11:15:08;;;;;;;;;;;27.30;42.30;;;;;;5017478;28;19909;-85
2023/06/26 11:17:34;;;;;;;;;;;27.10;42.10;;;;;;5018779;28;20013;-83
2023/06/26 11:20:00;;;;;;;;;;;26.90;42.40;;;;;;5015911;28;19952;-84
2023/06/26 11:22:26;;;;;;;;;;;26.90;42.60;;;;;;5014796;28;19906;-85
2023/06/26 11:24:53;;;;;;;;;;;26.90;42.60;;;;;;5001154;28;19964;-84
2023/06/26 11:27:19;;;;;;;;;;;27.00;42.60;;;;;;5020530;28;19913;-85
2023/06/26 11:29:51;;;;;;;;;;;27.00;42.50;;;;;;5014947;28;19909;-84
2023/06/26 11:32:16;;;;;;;;;;;27.00;42.50;;;;;;5015355;28;19910;-83
2023/06/26 11:34:43;;;;;;;;;;;27.10;42.40;;;;;;5015727;28;19910;-85
2023/06/26 11:37:09;;;;;;;;;;;27.10;42.30;;;;;;5016543;28;19911;-84
2023/06/26 11:39:34;;;;;;;;;;;27.20;42.00;;;;;;5017006;28;20334;-84
2023/06/26 11:42:01;;;;;;;;;;;27.00;41.60;;;;;;5018004;28;19905;-85
2023/06/26 11:44:31;;;;;;;;;;;26.90;41.90;;;;;;5008864;28;19947;-85
2023/06/26 11:46:56;;;;;;;;;;;26.90;42.20;;;;;;4997924;28;19919;-86
2023/06/26 11:49:23;;;;;;;;;;;26.90;42.40;;;;;;5010302;28;19909;-85
2023/06/26 11:51:49;;;;;;;;;;;26.80;42.40;;;;;;5015533;28;19956;-84
2023/06/26 11:54:14;;;;;;;;;;;26.80;42.50;;;;;;5016212;28;20278;-85
2023/06/26 11:56:40;;;;;;;;;;;26.70;42.90;;;;;;5017883;28;19957;-83
2023/06/26 11:59:08;;;;;;;;;;;26.60;42.80;;;;;;5016800;28;19983;-84
2023/06/26 12:01:38;;;;;;;;;;;26.40;42.80;;;;;;5014807;28;19983;-85
2023/06/26 12:04:06;;;;;;;;;;;26.40;42.60;;;;;;5017168;28;19929;-84
2023/06/26 12:06:36;;;;;;;;;;;26.40;42.10;;;;;;5015876;28;19913;-84
2023/06/26 12:09:06;;;;;;;;;;;26.60;42.10;;;;;;4999863;28;19913;-84
2023/06/26 12:11:32;;;;;;;;;;;26.90;41.80;;;;;;5016026;28;19913;-84
2023/06/26 12:13:58;;;;;;;;;;;26.90;40.70;;;;;;5019466;28;20520;-83
2023/06/26 12:16:25;;;;;;;;;;;27.00;41.10;;;;;;5019512;28;19906;-83
2023/06/26 12:18:51;;;;;;;;;;;27.30;41.10;;;;;;5022331;28;20317;-84
2023/06/26 12:21:44;;;;;;;;;;;27.60;40.50;;;;;;5001744;28;20020;-84
2023/06/26 12:24:12;;;;;;;;;;;27.60;40.50;;;;;;5026618;28;20358;-83
2023/06/26 12:26:38;;;;;;;;;;;27.60;40.20;;;;;;5017779;28;19969;-85
2023/06/26 12:29:04;;;;;;;;;;;27.40;39.80;;;;;;5003776;28;19928;-83
2023/06/26 12:31:31;;;;;;;;;;;27.00;40.00;;;;;;5019095;28;19905;-83
2023/06/26 12:33:56;;;;;;;;;;;26.70;40.50;;;;;;5007245;28;20000;-84
2023/06/26 12:36:22;;;;;;;;;;;26.60;40.80;;;;;;5014163;28;19986;-82
2023/06/26 12:38:48;;;;;;;;;;;26.50;40.90;;;;;;5016635;28;20359;-84
2023/06/26 12:41:16;;;;;;;;;;;26.50;41.00;;;;;;5017723;28;19909;-83
2023/06/26 12:43:43;;;;;;;;;;;26.60;41.10;;;;;;5003390;28;19931;-80
2023/06/26 12:46:08;;;;;;;;;;;26.60;41.70;;;;;;5015374;28;19914;-81
2023/06/26 12:48:43;;;;;;;;;;;26.70;41.20;;;;;;4999898;28;19981;-84
2023/06/26 12:51:10;;;;;;;;;;;26.80;41.20;;;;;;5021970;28;19932;-83
2023/06/26 12:53:35;;;;;;;;;;;27.00;41.20;;;;;;5025138;28;20008;-83
2023/06/26 12:56:01;;;;;;;;;;;27.00;40.90;;;;;;5012117;28;19963;-83
2023/06/26 12:58:27;;;;;;;;;;;27.10;40.90;;;;;;5016008;28;19913;-84
2023/06/26 13:00:53;;;;;;;;;;;27.00;40.70;;;;;;5014045;28;20367;-84
2023/06/26 13:03:20;;;;;;;;;;;27.00;40.70;;;;;;4996472;28;19905;-84
2023/06/26 13:05:47;;;;;;;;;;;27.00;40.80;;;;;;5013971;28;19909;-83
2023/06/26 13:08:12;;;;;;;;;;;27.00;40.80;;;;;;5007534;28;19912;-84
2023/06/26 13:10:39;;;;;;;;;;;26.90;40.70;;;;;;5013756;28;20363;-82
2023/06/26 13:13:05;;;;;;;;;;;26.70;40.60;;;;;;5014555;28;19913;-83
2023/06/26 13:15:31;;;;;;;;;;;26.60;40.70;;;;;;5015744;28;20079;-84
2023/06/26 13:17:56;;;;;;;;;;;26.40;40.90;;;;;;5016187;28;20326;-84
2023/06/26 13:20:22;;;;;;;;;;;26.20;41.00;;;;;;5018557;28;19977;-83
2023/06/26 13:22:48;;;;;;;;;;;26.10;41.00;;;;;;5001615;28;19960;-81
2023/06/26 13:25:13;;;;;;;;;;;26.10;41.00;;;;;;5000051;28;20283;-82
2023/06/26 13:27:39;;;;;;;;;;;26.00;41.10;;;;;;5019149;28;19932;-83
2023/06/26 13:30:05;;;;;;;;;;;25.90;41.40;;;;;;5021233;28;19910;-84
2023/06/26 13:32:31;;;;;;;;;;;25.90;41.50;;;;;;5022407;28;19949;-84
2023/06/26 13:34:57;;;;;;;;;;;25.90;41.90;;;;;;5021029;28;19913;-83
2023/06/26 13:37:23;;;;;;;;;;;25.70;42.00;;;;;;5022890;28;20000;-83
2023/06/26 13:39:50;;;;;;;;;;;25.70;42.00;;;;;;5017871;28;20090;-84
2023/06/26 13:42:16;;;;;;;;;;;26.30;42.00;;;;;;5004364;28;19912;-83
2023/06/26 13:44:42;;;;;;;;;;;27.60;41.50;;;;;;5015043;28;20004;-83
2023/06/26 13:47:08;;;;;;;;;;;28.80;40.50;;;;;;5013543;28;20406;-84
2023/06/26 13:49:33;;;;;;;;;;;29.90;40.20;;;;;;4995968;28;20346;-83
2023/06/26 13:51:59;;;;;;;;;;;30.50;38.10;;;;;;4995591;28;19909;-83
2023/06/26 13:54:25;;;;;;;;;;;30.90;37.20;;;;;;4996183;28;19955;-84
2023/06/26 13:56:50;;;;;;;;;;;31.10;36.50;;;;;;5013679;28;19923;-82
2023/06/26 13:59:17;;;;;;;;;;;31.30;36.10;;;;;;5014585;28;19909;-83
2023/06/26 14:01:43;;;;;;;;;;;31.20;35.70;;;;;;5008993;28;19941;-84
2023/06/26 14:04:09;;;;;;;;;;;31.10;35.70;;;;;;4997568;28;19912;-85
2023/06/26 14:06:35;;;;;;;;;;;31.10;36.20;;;;;;5014261;28;20012;-85
2023/06/26 14:09:00;;;;;;;;;;;31.40;36.00;;;;;;5016461;28;19906;-85
2023/06/26 14:11:26;;;;;;;;;;;31.90;36.20;;;;;;4998915;28;20355;-84
2023/06/26 14:13:52;;;;;;;;;;;32.00;34.80;;;;;;5020414;28;20000;-83
2023/06/26 14:16:18;;;;;;;;;;;31.40;34.80;;;;;;5024099;28;19929;-84
2023/06/26 14:18:44;;;;;;;;;;;31.40;35.10;;;;;;5009592;28;19936;-83